Regional Weather

 

KMKL - Jackson, TN, USA
Distance from station: WNW 50mi, 81km
Updated: Mon, Jan-24-2022 10:53pm CST
Clear
Clear
 Wind from S
Wind: S 5 mph , 7 km/h
Temperature: 45°F , 7°C
Wind Chill: 42°F , 6°C
Dew Point: 36°F , 2°C
Humidity: 71%
Barometer: 29.87 inHg , 1011.5 hPa
Clouds: Clear
Visibility: 10 miles , 16 km
2022/01/25 04:53 KMKL 250453Z AUTO 19004KT 10SM CLR 07/02 A2987 RMK AO2 SLP116 T00670022 $
KMEM - Memphis, TN, USA
Distance from station: W 108mi, 173km
Updated: Mon, Jan-24-2022 10:54pm CST
Mostly cloudy
Mostly cloudy
 Wind from SW
Wind: SW 9 mph , 15 km/h
Temperature: 52°F , 11°C
Dew Point: 39°F , 4°C
Humidity: 62%
Barometer: 29.88 inHg , 1011.9 hPa
Clouds: Mostly cloudy
Visibility: 10 miles , 16 km
Cloud details: Mostly cloudy 22000 ft
2022/01/25 04:54 KMEM 250454Z 23008KT 10SM BKN220 11/04 A2988 RMK AO2 SLP118 T01110044 $
 
KBNA - Nashville, TN, USA
Distance from station: NE 97mi, 157km
Updated: Mon, Jan-24-2022 10:53pm CST
Overcast
Overcast
 Wind from NNW
Wind: NNW 6 mph , 9 km/h
Temperature: 50°F , 10°C
Wind Chill: 48°F , 9°C
Dew Point: 30°F , -1°C
Humidity: 47%
Barometer: 29.87 inHg , 1011.5 hPa
Clouds: Overcast
Visibility: 10 miles , 16 km
Cloud details: Overcast 13000 ft
2022/01/25 04:53 KBNA 250453Z 33005KT 10SM OVC130 10/M01 A2987 RMK AO2 SLP115 T01001006
KCKV - Clarksville, TN, USA
Distance from station: NNE 99mi, 159km
Updated: Mon, Jan-24-2022 10:52pm CST
Mostly cloudy
Mostly cloudy
 Wind from N
Wind: N 12 mph , 19 km/h
Temperature: 46°F , 8°C
Wind Chill: 40°F , 4°C
Dew Point: 32°F , 0°C
Humidity: 57%
Barometer: 29.89 inHg , 1012.2 hPa
Clouds: Mostly cloudy
Visibility: 10 miles , 16 km
Cloud details: Few Clouds 8000 ft
Mostly cloudy 12000 ft
2022/01/25 04:52 KCKV 250452Z AUTO 35010KT 10SM FEW080 BKN120 08/00 A2989 RMK AO2 SLP123 T00780000 TSNO
 
KPAH - Paducah, KY, USA
Distance from station: NNW 128mi, 205km
Updated: Mon, Jan-24-2022 10:53pm CST
Mostly cloudy
Mostly cloudy
 Wind from N
Wind: N 10 mph , 17 km/h
Temperature: 39°F , 4°C
Wind Chill: 32°F , 0°C
Dew Point: 28°F , -2°C
Humidity: 65%
Barometer: 29.94 inHg , 1013.9 hPa
Clouds: Mostly cloudy
Visibility: 10 miles , 16 km
Cloud details: Mostly cloudy 5500 ft
Mostly cloudy 9000 ft
2022/01/25 04:53 KPAH 250453Z 01009KT 10SM BKN055 BKN090 04/M02 A2994 RMK AO2 SLP139 T00441022
KCHA - Chattanooga, TN, USA
Distance from station: E 165mi, 265km
Updated: Mon, Jan-24-2022 10:53pm CST
Overcast
Overcast
 Wind from S
Wind: S 8 mph , 13 km/h
Temperature: 48°F , 9°C
Wind Chill: 44°F , 7°C
Dew Point: 32°F , 0°C
Humidity: 54%
Barometer: 29.90 inHg , 1012.5 hPa
Clouds: Overcast
Visibility: 10 miles , 16 km
Cloud details: Overcast 23000 ft
2022/01/25 04:53 KCHA 250453Z 17007KT 10SM OVC230 09/00 A2990 RMK AO2 SLP124 LAST T00940000 401501033
 
KTYS - Knoxville, TN, USA
Distance from station: E 234mi, 377km
Updated: Mon, Jan-24-2022 10:53pm CST
Overcast
Overcast
 Wind from SW
Wind: SW 9 mph , 15 km/h
Temperature: 46°F , 8°C
Wind Chill: 41°F , 5°C
Dew Point: 32°F , 0°C
Humidity: 57%
Barometer: 29.87 inHg , 1011.5 hPa
Clouds: Overcast
Visibility: 10 miles , 16 km
Cloud details: Overcast 13000 ft
2022/01/25 04:53 KTYS 250453Z 23008KT 10SM OVC130 08/00 A2987 RMK AO2 SLP114 T00780000 401221022 $
KLIT - Little Rock, AR, USA
Distance from station: W 240mi, 386km
Updated: Mon, Jan-24-2022 10:53pm CST
Mostly cloudy
Mostly cloudy
 Wind from WSW
Wind: WSW 8 mph , 13 km/h
Temperature: 52°F , 11°C
Dew Point: 39°F , 4°C
Humidity: 62%
Barometer: 29.91 inHg , 1012.9 hPa
Clouds: Mostly cloudy
Visibility: 10 miles , 16 km
Cloud details: Mostly cloudy 20000 ft
2022/01/25 04:53 KLIT 250453Z 25007KT 10SM BKN200 11/04 A2991 RMK AO2 SLP131 T01060044 $

Refresh Page for latest data.